sensor_id;sensor_type;location;lat;lon;timestamp;temperature;humidity
20650;DHT22;10484;48.736;9.332;2023-04-24T00:00:36;13.40;1.00
20650;DHT22;10484;48.736;9.332;2023-04-24T00:03:03;13.40;1.00
20650;DHT22;10484;48.736;9.332;2023-04-24T00:05:29;13.40;1.00
20650;DHT22;10484;48.736;9.332;2023-04-24T00:07:54;13.40;1.00
20650;DHT22;10484;48.736;9.332;2023-04-24T00:10:20;13.40;1.00
20650;DHT22;10484;48.736;9.332;2023-04-24T00:12:46;13.40;1.00
20650;DHT22;10484;48.736;9.332;2023-04-24T00:15:12;13.40;1.00
20650;DHT22;10484;48.736;9.332;2023-04-24T00:17:38;13.40;1.00
20650;DHT22;10484;48.736;9.332;2023-04-24T00:20:04;13.40;1.00
20650;DHT22;10484;48.736;9.332;2023-04-24T00:22:32;13.20;1.00
20650;DHT22;10484;48.736;9.332;2023-04-24T00:24:58;13.20;1.00
20650;DHT22;10484;48.736;9.332;2023-04-24T00:27:24;13.20;1.00
20650;DHT22;10484;48.736;9.332;2023-04-24T00:29:50;13.20;1.00
20650;DHT22;10484;48.736;9.332;2023-04-24T00:32:15;13.20;1.00
20650;DHT22;10484;48.736;9.332;2023-04-24T00:34:41;13.20;1.00
20650;DHT22;10484;48.736;9.332;2023-04-24T00:37:07;13.20;1.00
20650;DHT22;10484;48.736;9.332;2023-04-24T00:39:33;13.20;1.00
20650;DHT22;10484;48.736;9.332;2023-04-24T00:41:58;13.20;1.00
20650;DHT22;10484;48.736;9.332;2023-04-24T00:44:24;13.20;1.00
20650;DHT22;10484;48.736;9.332;2023-04-24T00:46:50;13.20;1.00
20650;DHT22;10484;48.736;9.332;2023-04-24T00:49:20;13.20;1.00
20650;DHT22;10484;48.736;9.332;2023-04-24T00:51:46;13.20;1.00
20650;DHT22;10484;48.736;9.332;2023-04-24T00:54:13;13.20;1.00
20650;DHT22;10484;48.736;9.332;2023-04-24T00:56:39;13.20;1.00
20650;DHT22;10484;48.736;9.332;2023-04-24T00:59:06;13.20;1.00
20650;DHT22;10484;48.736;9.332;2023-04-24T01:01:32;13.20;1.00
20650;DHT22;10484;48.736;9.332;2023-04-24T01:03:58;13.20;1.00
20650;DHT22;10484;48.736;9.332;2023-04-24T01:06:27;13.20;1.00
20650;DHT22;10484;48.736;9.332;2023-04-24T01:08:54;13.20;1.00
20650;DHT22;10484;48.736;9.332;2023-04-24T01:11:21;13.10;1.00
20650;DHT22;10484;48.736;9.332;2023-04-24T01:13:48;13.10;1.00
20650;DHT22;10484;48.736;9.332;2023-04-24T01:16:14;13.10;1.00
20650;DHT22;10484;48.736;9.332;2023-04-24T01:18:43;13.00;1.00
20650;DHT22;10484;48.736;9.332;2023-04-24T01:21:09;13.00;1.00
20650;DHT22;10484;48.736;9.332;2023-04-24T01:23:34;13.00;1.00
20650;DHT22;10484;48.736;9.332;2023-04-24T01:26:00;12.90;1.00
20650;DHT22;10484;48.736;9.332;2023-04-24T01:28:26;12.90;1.00
20650;DHT22;10484;48.736;9.332;2023-04-24T01:30:52;12.90;1.00
20650;DHT22;10484;48.736;9.332;2023-04-24T01:33:21;12.80;1.00
20650;DHT22;10484;48.736;9.332;2023-04-24T01:35:47;12.80;1.00
20650;DHT22;10484;48.736;9.332;2023-04-24T01:38:13;12.80;1.00
20650;DHT22;10484;48.736;9.332;2023-04-24T01:40:38;12.80;1.00
20650;DHT22;10484;48.736;9.332;2023-04-24T01:43:04;12.80;1.00
20650;DHT22;10484;48.736;9.332;2023-04-24T01:45:30;12.80;1.00
20650;DHT22;10484;48.736;9.332;2023-04-24T01:47:56;12.80;1.00
20650;DHT22;10484;48.736;9.332;2023-04-24T01:50:22;12.70;1.00
20650;DHT22;10484;48.736;9.332;2023-04-24T01:52:48;12.70;1.00
20650;DHT22;10484;48.736;9.332;2023-04-24T01:55:13;12.60;1.00
20650;DHT22;10484;48.736;9.332;2023-04-24T01:57:39;12.70;1.00
20650;DHT22;10484;48.736;9.332;2023-04-24T02:00:06;12.70;1.00
20650;DHT22;10484;48.736;9.332;2023-04-24T02:02:32;12.60;1.00
20650;DHT22;10484;48.736;9.332;2023-04-24T02:04:58;12.60;1.00
20650;DHT22;10484;48.736;9.332;2023-04-24T02:07:23;12.70;1.00
20650;DHT22;10484;48.736;9.332;2023-04-24T02:09:49;12.70;1.00
20650;DHT22;10484;48.736;9.332;2023-04-24T02:12:15;12.60;1.00
20650;DHT22;10484;48.736;9.332;2023-04-24T02:14:42;12.60;1.00
20650;DHT22;10484;48.736;9.332;2023-04-24T02:17:08;12.60;1.00
20650;DHT22;10484;48.736;9.332;2023-04-24T02:19:34;12.60;1.00
20650;DHT22;10484;48.736;9.332;2023-04-24T02:21:59;12.60;1.00
20650;DHT22;10484;48.736;9.332;2023-04-24T02:24:25;12.60;1.00
20650;DHT22;10484;48.736;9.332;2023-04-24T02:26:50;12.60;1.00
20650;DHT22;10484;48.736;9.332;2023-04-24T02:29:16;12.60;1.00
20650;DHT22;10484;48.736;9.332;2023-04-24T02:31:42;12.50;1.00
20650;DHT22;10484;48.736;9.332;2023-04-24T02:34:07;12.50;1.00
20650;DHT22;10484;48.736;9.332;2023-04-24T02:36:33;12.50;1.00
20650;DHT22;10484;48.736;9.332;2023-04-24T02:38:58;12.50;1.00
20650;DHT22;10484;48.736;9.332;2023-04-24T02:41:24;12.50;1.00
20650;DHT22;10484;48.736;9.332;2023-04-24T02:43:50;12.50;1.00
20650;DHT22;10484;48.736;9.332;2023-04-24T02:46:15;12.50;1.00
20650;DHT22;10484;48.736;9.332;2023-04-24T02:48:41;12.50;1.00
20650;DHT22;10484;48.736;9.332;2023-04-24T02:51:07;12.40;1.00
20650;DHT22;10484;48.736;9.332;2023-04-24T02:53:32;12.40;1.00
20650;DHT22;10484;48.736;9.332;2023-04-24T02:55:58;12.40;1.00
20650;DHT22;10484;48.736;9.332;2023-04-24T02:58:24;12.40;1.00
20650;DHT22;10484;48.736;9.332;2023-04-24T03:00:53;12.40;1.00
20650;DHT22;10484;48.736;9.332;2023-04-24T03:03:20;12.40;1.00
20650;DHT22;10484;48.736;9.332;2023-04-24T03:05:45;12.40;1.00
20650;DHT22;10484;48.736;9.332;2023-04-24T03:08:11;12.40;1.00
20650;DHT22;10484;48.736;9.332;2023-04-24T03:10:36;12.40;1.00
20650;DHT22;10484;48.736;9.332;2023-04-24T03:13:02;12.30;1.00
20650;DHT22;10484;48.736;9.332;2023-04-24T03:15:28;12.30;1.00
20650;DHT22;10484;48.736;9.332;2023-04-24T03:17:53;12.30;1.00
20650;DHT22;10484;48.736;9.332;2023-04-24T03:20:19;12.30;1.00
20650;DHT22;10484;48.736;9.332;2023-04-24T03:22:44;12.20;1.00
20650;DHT22;10484;48.736;9.332;2023-04-24T03:25:10;12.20;1.00
20650;DHT22;10484;48.736;9.332;2023-04-24T03:27:35;12.20;1.00
20650;DHT22;10484;48.736;9.332;2023-04-24T03:30:01;12.30;1.00
20650;DHT22;10484;48.736;9.332;2023-04-24T03:32:27;12.20;1.00
20650;DHT22;10484;48.736;9.332;2023-04-24T03:34:53;12.30;1.00
20650;DHT22;10484;48.736;9.332;2023-04-24T03:37:18;12.30;1.00
20650;DHT22;10484;48.736;9.332;2023-04-24T03:39:44;12.30;1.00
20650;DHT22;10484;48.736;9.332;2023-04-24T03:42:10;12.30;1.00
20650;DHT22;10484;48.736;9.332;2023-04-24T03:44:36;12.30;1.00
20650;DHT22;10484;48.736;9.332;2023-04-24T03:47:01;12.30;1.00
20650;DHT22;10484;48.736;9.332;2023-04-24T03:49:27;12.30;1.00
20650;DHT22;10484;48.736;9.332;2023-04-24T03:51:53;12.30;1.00
20650;DHT22;10484;48.736;9.332;2023-04-24T03:54:19;12.30;1.00
20650;DHT22;10484;48.736;9.332;2023-04-24T03:56:45;12.30;1.00
20650;DHT22;10484;48.736;9.332;2023-04-24T03:59:10;12.30;1.00
20650;DHT22;10484;48.736;9.332;2023-04-24T04:01:36;12.30;1.00
20650;DHT22;10484;48.736;9.332;2023-04-24T04:04:06;12.30;1.00
20650;DHT22;10484;48.736;9.332;2023-04-24T04:06:31;12.30;1.00
20650;DHT22;10484;48.736;9.332;2023-04-24T04:08:58;12.30;1.00
20650;DHT22;10484;48.736;9.332;2023-04-24T04:11:24;12.30;1.00
20650;DHT22;10484;48.736;9.332;2023-04-24T04:13:50;12.30;1.00
20650;DHT22;10484;48.736;9.332;2023-04-24T04:16:15;12.30;1.00
20650;DHT22;10484;48.736;9.332;2023-04-24T04:18:44;12.20;1.00
20650;DHT22;10484;48.736;9.332;2023-04-24T04:21:10;12.20;1.00
20650;DHT22;10484;48.736;9.332;2023-04-24T04:23:35;12.20;1.00
20650;DHT22;10484;48.736;9.332;2023-04-24T04:26:02;12.20;1.00
20650;DHT22;10484;48.736;9.332;2023-04-24T04:28:29;12.20;1.00
20650;DHT22;10484;48.736;9.332;2023-04-24T04:30:57;12.10;1.00
20650;DHT22;10484;48.736;9.332;2023-04-24T04:33:23;12.20;1.00
20650;DHT22;10484;48.736;9.332;2023-04-24T04:35:49;12.20;1.00
20650;DHT22;10484;48.736;9.332;2023-04-24T04:38:15;12.20;1.00
20650;DHT22;10484;48.736;9.332;2023-04-24T04:40:42;12.20;1.00
20650;DHT22;10484;48.736;9.332;2023-04-24T04:43:08;12.10;1.00
20650;DHT22;10484;48.736;9.332;2023-04-24T04:45:34;12.00;1.00
20650;DHT22;10484;48.736;9.332;2023-04-24T04:48:00;11.90;1.00
20650;DHT22;10484;48.736;9.332;2023-04-24T04:50:27;11.90;1.00
20650;DHT22;10484;48.736;9.332;2023-04-24T04:52:53;11.80;1.00
20650;DHT22;10484;48.736;9.332;2023-04-24T04:55:18;11.80;1.00
20650;DHT22;10484;48.736;9.332;2023-04-24T04:57:45;11.80;1.00
20650;DHT22;10484;48.736;9.332;2023-04-24T05:00:11;11.80;1.00
20650;DHT22;10484;48.736;9.332;2023-04-24T05:02:38;11.80;1.00
20650;DHT22;10484;48.736;9.332;2023-04-24T05:05:04;11.80;1.00
20650;DHT22;10484;48.736;9.332;2023-04-24T05:07:30;11.80;1.00
20650;DHT22;10484;48.736;9.332;2023-04-24T05:09:56;11.70;1.00
20650;DHT22;10484;48.736;9.332;2023-04-24T05:12:22;11.70;1.00
20650;DHT22;10484;48.736;9.332;2023-04-24T05:14:47;11.70;1.00
20650;DHT22;10484;48.736;9.332;2023-04-24T05:17:13;11.70;1.00
20650;DHT22;10484;48.736;9.332;2023-04-24T05:19:38;11.70;1.00
20650;DHT22;10484;48.736;9.332;2023-04-24T05:22:04;11.70;1.00
20650;DHT22;10484;48.736;9.332;2023-04-24T05:24:32;11.70;1.00
20650;DHT22;10484;48.736;9.332;2023-04-24T05:26:58;11.60;1.00
20650;DHT22;10484;48.736;9.332;2023-04-24T05:29:24;11.60;1.00
20650;DHT22;10484;48.736;9.332;2023-04-24T05:31:51;11.60;1.00
20650;DHT22;10484;48.736;9.332;2023-04-24T05:34:17;11.60;1.00
20650;DHT22;10484;48.736;9.332;2023-04-24T05:36:42;11.60;1.00
20650;DHT22;10484;48.736;9.332;2023-04-24T05:39:08;11.60;1.00
20650;DHT22;10484;48.736;9.332;2023-04-24T05:41:34;11.60;1.00
20650;DHT22;10484;48.736;9.332;2023-04-24T05:44:00;11.60;1.00
20650;DHT22;10484;48.736;9.332;2023-04-24T05:46:25;11.50;1.00
20650;DHT22;10484;48.736;9.332;2023-04-24T05:48:51;11.50;1.00
20650;DHT22;10484;48.736;9.332;2023-04-24T05:51:17;11.50;1.00
20650;DHT22;10484;48.736;9.332;2023-04-24T05:53:42;11.40;1.00
20650;DHT22;10484;48.736;9.332;2023-04-24T05:56:08;11.40;1.00
20650;DHT22;10484;48.736;9.332;2023-04-24T05:58:33;11.40;1.00
20650;DHT22;10484;48.736;9.332;2023-04-24T06:00:59;11.40;1.00
20650;DHT22;10484;48.736;9.332;2023-04-24T06:03:26;11.40;1.00
20650;DHT22;10484;48.736;9.332;2023-04-24T06:05:52;11.40;1.00
20650;DHT22;10484;48.736;9.332;2023-04-24T06:08:18;11.40;1.00
20650;DHT22;10484;48.736;9.332;2023-04-24T06:10:44;11.40;1.00
20650;DHT22;10484;48.736;9.332;2023-04-24T06:13:10;11.40;1.00
20650;DHT22;10484;48.736;9.332;2023-04-24T06:15:37;11.40;1.00
20650;DHT22;10484;48.736;9.332;2023-04-24T06:18:02;11.40;1.00
20650;DHT22;10484;48.736;9.332;2023-04-24T06:20:28;11.40;1.00
20650;DHT22;10484;48.736;9.332;2023-04-24T06:22:54;11.40;1.00
20650;DHT22;10484;48.736;9.332;2023-04-24T06:25:19;11.40;1.00
20650;DHT22;10484;48.736;9.332;2023-04-24T06:27:45;11.40;1.00
20650;DHT22;10484;48.736;9.332;2023-04-24T06:30:11;11.50;1.00
20650;DHT22;10484;48.736;9.332;2023-04-24T06:32:37;11.40;1.00
20650;DHT22;10484;48.736;9.332;2023-04-24T06:35:03;11.40;1.00
20650;DHT22;10484;48.736;9.332;2023-04-24T06:37:29;11.40;1.00
20650;DHT22;10484;48.736;9.332;2023-04-24T06:39:55;11.50;1.00
20650;DHT22;10484;48.736;9.332;2023-04-24T06:42:20;11.50;1.00
20650;DHT22;10484;48.736;9.332;2023-04-24T06:44:47;11.50;1.00
20650;DHT22;10484;48.736;9.332;2023-04-24T06:47:13;11.50;1.00
20650;DHT22;10484;48.736;9.332;2023-04-24T06:49:39;11.50;1.00
20650;DHT22;10484;48.736;9.332;2023-04-24T06:52:05;11.50;1.00
20650;DHT22;10484;48.736;9.332;2023-04-24T06:54:31;11.50;1.00
20650;DHT22;10484;48.736;9.332;2023-04-24T06:56:58;11.50;1.00
20650;DHT22;10484;48.736;9.332;2023-04-24T06:59:24;11.50;1.00
20650;DHT22;10484;48.736;9.332;2023-04-24T07:01:50;11.60;1.00
20650;DHT22;10484;48.736;9.332;2023-04-24T07:04:16;11.60;1.00
20650;DHT22;10484;48.736;9.332;2023-04-24T07:06:43;11.60;1.00
20650;DHT22;10484;48.736;9.332;2023-04-24T07:09:11;11.60;1.00
20650;DHT22;10484;48.736;9.332;2023-04-24T07:11:36;11.70;1.00
20650;DHT22;10484;48.736;9.332;2023-04-24T07:14:03;11.70;1.00
20650;DHT22;10484;48.736;9.332;2023-04-24T07:16:29;11.70;1.00
20650;DHT22;10484;48.736;9.332;2023-04-24T07:18:55;11.70;1.00
20650;DHT22;10484;48.736;9.332;2023-04-24T07:21:21;11.70;1.00
20650;DHT22;10484;48.736;9.332;2023-04-24T07:23:46;11.70;1.00
20650;DHT22;10484;48.736;9.332;2023-04-24T07:26:12;11.70;1.00
20650;DHT22;10484;48.736;9.332;2023-04-24T07:28:40;11.70;1.00
20650;DHT22;10484;48.736;9.332;2023-04-24T07:31:07;11.70;1.00
20650;DHT22;10484;48.736;9.332;2023-04-24T07:33:33;11.80;1.00
20650;DHT22;10484;48.736;9.332;2023-04-24T07:35:59;11.80;1.00
20650;DHT22;10484;48.736;9.332;2023-04-24T07:38:25;11.70;1.00
20650;DHT22;10484;48.736;9.332;2023-04-24T07:40:51;11.80;1.00
20650;DHT22;10484;48.736;9.332;2023-04-24T07:43:17;11.80;1.00
20650;DHT22;10484;48.736;9.332;2023-04-24T07:45:43;11.80;1.00
20650;DHT22;10484;48.736;9.332;2023-04-24T07:48:09;11.70;1.00
20650;DHT22;10484;48.736;9.332;2023-04-24T07:50:35;11.70;1.00
20650;DHT22;10484;48.736;9.332;2023-04-24T07:53:02;11.70;1.00
20650;DHT22;10484;48.736;9.332;2023-04-24T07:55:27;11.60;1.00
20650;DHT22;10484;48.736;9.332;2023-04-24T07:57:53;11.70;1.00
20650;DHT22;10484;48.736;9.332;2023-04-24T08:00:19;11.70;1.00
20650;DHT22;10484;48.736;9.332;2023-04-24T08:02:45;11.80;1.00
20650;DHT22;10484;48.736;9.332;2023-04-24T08:05:10;11.90;1.00
20650;DHT22;10484;48.736;9.332;2023-04-24T08:07:36;11.90;1.00
20650;DHT22;10484;48.736;9.332;2023-04-24T08:10:02;12.00;1.00
20650;DHT22;10484;48.736;9.332;2023-04-24T08:12:29;12.10;1.00
20650;DHT22;10484;48.736;9.332;2023-04-24T08:14:54;12.10;1.00
20650;DHT22;10484;48.736;9.332;2023-04-24T08:17:20;12.20;1.00
20650;DHT22;10484;48.736;9.332;2023-04-24T08:19:46;12.30;1.00
20650;DHT22;10484;48.736;9.332;2023-04-24T08:22:14;12.40;1.00
20650;DHT22;10484;48.736;9.332;2023-04-24T08:24:40;12.50;1.00
20650;DHT22;10484;48.736;9.332;2023-04-24T08:27:05;12.60;1.00
20650;DHT22;10484;48.736;9.332;2023-04-24T08:29:31;12.60;1.00
20650;DHT22;10484;48.736;9.332;2023-04-24T08:31:57;12.70;1.00
20650;DHT22;10484;48.736;9.332;2023-04-24T08:34:23;12.80;1.00
20650;DHT22;10484;48.736;9.332;2023-04-24T08:36:48;12.80;1.00
20650;DHT22;10484;48.736;9.332;2023-04-24T08:39:14;12.70;1.00
20650;DHT22;10484;48.736;9.332;2023-04-24T08:41:42;12.70;1.00
20650;DHT22;10484;48.736;9.332;2023-04-24T08:44:12;12.70;1.00
20650;DHT22;10484;48.736;9.332;2023-04-24T08:46:39;12.70;1.00
20650;DHT22;10484;48.736;9.332;2023-04-24T08:49:06;12.70;1.00
20650;DHT22;10484;48.736;9.332;2023-04-24T08:51:31;12.70;1.00
20650;DHT22;10484;48.736;9.332;2023-04-24T08:53:57;12.70;1.00
20650;DHT22;10484;48.736;9.332;2023-04-24T08:56:23;12.80;1.00
20650;DHT22;10484;48.736;9.332;2023-04-24T08:58:53;12.80;1.00
20650;DHT22;10484;48.736;9.332;2023-04-24T09:01:23;12.90;1.00
20650;DHT22;10484;48.736;9.332;2023-04-24T09:03:50;13.00;1.00
20650;DHT22;10484;48.736;9.332;2023-04-24T09:06:17;13.10;1.00
20650;DHT22;10484;48.736;9.332;2023-04-24T09:08:45;13.10;1.00
20650;DHT22;10484;48.736;9.332;2023-04-24T09:11:11;13.20;1.00
20650;DHT22;10484;48.736;9.332;2023-04-24T09:13:37;13.20;1.00
20650;DHT22;10484;48.736;9.332;2023-04-24T09:16:03;13.20;1.00
20650;DHT22;10484;48.736;9.332;2023-04-24T09:18:29;13.20;1.00
20650;DHT22;10484;48.736;9.332;2023-04-24T09:21:02;13.20;1.00
20650;DHT22;10484;48.736;9.332;2023-04-24T09:23:30;13.20;1.00
20650;DHT22;10484;48.736;9.332;2023-04-24T09:25:57;13.20;1.00
20650;DHT22;10484;48.736;9.332;2023-04-24T09:28:30;13.30;1.00
20650;DHT22;10484;48.736;9.332;2023-04-24T09:31:23;13.30;1.00
20650;DHT22;10484;48.736;9.332;2023-04-24T09:33:58;13.40;1.00
20650;DHT22;10484;48.736;9.332;2023-04-24T09:36:32;13.30;1.00
20650;DHT22;10484;48.736;9.332;2023-04-24T09:39:14;13.30;1.00
20650;DHT22;10484;48.736;9.332;2023-04-24T09:41:51;13.30;1.00
20650;DHT22;10484;48.736;9.332;2023-04-24T09:44:19;13.20;1.00
20650;DHT22;10484;48.736;9.332;2023-04-24T09:46:52;13.20;1.00
20650;DHT22;10484;48.736;9.332;2023-04-24T09:49:31;13.20;1.00
20650;DHT22;10484;48.736;9.332;2023-04-24T09:52:09;13.20;1.00
20650;DHT22;10484;48.736;9.332;2023-04-24T09:54:35;13.30;1.00
20650;DHT22;10484;48.736;9.332;2023-04-24T09:57:02;13.30;1.00
20650;DHT22;10484;48.736;9.332;2023-04-24T09:59:27;13.40;1.00
20650;DHT22;10484;48.736;9.332;2023-04-24T10:01:53;13.40;1.00
20650;DHT22;10484;48.736;9.332;2023-04-24T10:04:23;13.50;1.00
20650;DHT22;10484;48.736;9.332;2023-04-24T10:06:51;13.70;1.00
20650;DHT22;10484;48.736;9.332;2023-04-24T10:09:23;13.80;1.00
20650;DHT22;10484;48.736;9.332;2023-04-24T10:11:50;14.00;1.00
20650;DHT22;10484;48.736;9.332;2023-04-24T10:14:21;14.10;1.00
20650;DHT22;10484;48.736;9.332;2023-04-24T10:16:47;14.20;1.00
20650;DHT22;10484;48.736;9.332;2023-04-24T10:19:15;14.20;1.00
20650;DHT22;10484;48.736;9.332;2023-04-24T10:21:43;14.20;1.00
20650;DHT22;10484;48.736;9.332;2023-04-24T10:24:12;14.10;1.00
20650;DHT22;10484;48.736;9.332;2023-04-24T10:26:38;14.10;1.00
20650;DHT22;10484;48.736;9.332;2023-04-24T10:29:05;14.10;1.00
20650;DHT22;10484;48.736;9.332;2023-04-24T10:31:36;14.10;1.00
20650;DHT22;10484;48.736;9.332;2023-04-24T10:34:02;14.10;1.00
20650;DHT22;10484;48.736;9.332;2023-04-24T10:36:29;14.20;1.00
20650;DHT22;10484;48.736;9.332;2023-04-24T10:38:58;14.30;1.00
20650;DHT22;10484;48.736;9.332;2023-04-24T10:41:26;14.40;1.00
20650;DHT22;10484;48.736;9.332;2023-04-24T10:44:12;14.40;1.00
20650;DHT22;10484;48.736;9.332;2023-04-24T10:46:39;14.60;1.00
20650;DHT22;10484;48.736;9.332;2023-04-24T10:49:07;14.70;1.00
20650;DHT22;10484;48.736;9.332;2023-04-24T10:51:51;14.70;1.00
20650;DHT22;10484;48.736;9.332;2023-04-24T10:59:49;14.90;1.00
20650;DHT22;10484;48.736;9.332;2023-04-24T11:02:16;14.90;1.00
20650;DHT22;10484;48.736;9.332;2023-04-24T11:04:43;15.00;1.00
20650;DHT22;10484;48.736;9.332;2023-04-24T11:07:09;14.90;1.00
20650;DHT22;10484;48.736;9.332;2023-04-24T11:09:36;14.80;1.00
20650;DHT22;10484;48.736;9.332;2023-04-24T11:12:11;14.80;1.00
20650;DHT22;10484;48.736;9.332;2023-04-24T11:17:29;14.70;1.00
20650;DHT22;10484;48.736;9.332;2023-04-24T11:20:02;14.60;1.00
20650;DHT22;10484;48.736;9.332;2023-04-24T11:22:31;14.60;1.00
20650;DHT22;10484;48.736;9.332;2023-04-24T11:24:59;14.50;1.00
20650;DHT22;10484;48.736;9.332;2023-04-24T11:27:30;14.50;1.00
20650;DHT22;10484;48.736;9.332;2023-04-24T11:37:36;14.30;1.00
20650;DHT22;10484;48.736;9.332;2023-04-24T11:40:03;14.30;1.00
20650;DHT22;10484;48.736;9.332;2023-04-24T11:42:40;14.30;1.00
20650;DHT22;10484;48.736;9.332;2023-04-24T11:45:10;14.30;1.00
20650;DHT22;10484;48.736;9.332;2023-04-24T11:47:36;14.30;1.00
20650;DHT22;10484;48.736;9.332;2023-04-24T11:50:02;14.40;1.00
20650;DHT22;10484;48.736;9.332;2023-04-24T11:52:30;14.40;1.00
20650;DHT22;10484;48.736;9.332;2023-04-24T11:54:56;14.40;1.00
20650;DHT22;10484;48.736;9.332;2023-04-24T11:57:24;14.40;1.00
20650;DHT22;10484;48.736;9.332;2023-04-24T11:59:51;14.50;1.00
20650;DHT22;10484;48.736;9.332;2023-04-24T12:02:23;14.50;1.00
20650;DHT22;10484;48.736;9.332;2023-04-24T12:04:49;14.50;1.00
20650;DHT22;10484;48.736;9.332;2023-04-24T12:07:15;14.50;1.00
20650;DHT22;10484;48.736;9.332;2023-04-24T12:12:08;14.40;1.00
20650;DHT22;10484;48.736;9.332;2023-04-24T12:14:47;14.30;1.00
20650;DHT22;10484;48.736;9.332;2023-04-24T12:17:13;14.30;1.00
20650;DHT22;10484;48.736;9.332;2023-04-24T12:19:48;14.20;1.00
20650;DHT22;10484;48.736;9.332;2023-04-24T12:22:14;14.10;1.00
20650;DHT22;10484;48.736;9.332;2023-04-24T12:25:02;14.10;1.00
20650;DHT22;10484;48.736;9.332;2023-04-24T12:27:32;14.10;1.00
20650;DHT22;10484;48.736;9.332;2023-04-24T12:30:04;14.20;1.00
20650;DHT22;10484;48.736;9.332;2023-04-24T12:32:29;14.20;1.00
20650;DHT22;10484;48.736;9.332;2023-04-24T12:34:55;14.20;1.00
20650;DHT22;10484;48.736;9.332;2023-04-24T12:37:25;14.10;1.00
20650;DHT22;10484;48.736;9.332;2023-04-24T12:40:06;14.10;1.00
20650;DHT22;10484;48.736;9.332;2023-04-24T12:42:32;14.10;1.00
20650;DHT22;10484;48.736;9.332;2023-04-24T12:45:07;14.10;1.00
20650;DHT22;10484;48.736;9.332;2023-04-24T12:47:33;14.10;1.00
20650;DHT22;10484;48.736;9.332;2023-04-24T12:50:00;14.10;1.00
20650;DHT22;10484;48.736;9.332;2023-04-24T12:52:27;14.10;1.00
20650;DHT22;10484;48.736;9.332;2023-04-24T12:54:54;14.10;1.00
20650;DHT22;10484;48.736;9.332;2023-04-24T12:57:21;14.10;1.00
20650;DHT22;10484;48.736;9.332;2023-04-24T12:59:46;14.20;1.00
20650;DHT22;10484;48.736;9.332;2023-04-24T13:02:12;14.20;1.00
20650;DHT22;10484;48.736;9.332;2023-04-24T13:04:38;14.10;1.00
20650;DHT22;10484;48.736;9.332;2023-04-24T13:07:04;14.00;1.00
20650;DHT22;10484;48.736;9.332;2023-04-24T13:09:30;14.00;1.00
20650;DHT22;10484;48.736;9.332;2023-04-24T13:11:56;13.90;1.00
20650;DHT22;10484;48.736;9.332;2023-04-24T13:14:23;13.90;1.00
20650;DHT22;10484;48.736;9.332;2023-04-24T13:16:49;13.90;1.00
20650;DHT22;10484;48.736;9.332;2023-04-24T13:19:14;13.90;1.00
20650;DHT22;10484;48.736;9.332;2023-04-24T13:21:40;13.90;1.00
20650;DHT22;10484;48.736;9.332;2023-04-24T13:24:06;13.80;1.00
20650;DHT22;10484;48.736;9.332;2023-04-24T13:26:33;13.80;1.00
20650;DHT22;10484;48.736;9.332;2023-04-24T13:28:58;13.80;1.00
20650;DHT22;10484;48.736;9.332;2023-04-24T13:31:24;13.80;1.00
20650;DHT22;10484;48.736;9.332;2023-04-24T13:33:49;13.90;1.00
20650;DHT22;10484;48.736;9.332;2023-04-24T13:36:15;13.90;1.00
20650;DHT22;10484;48.736;9.332;2023-04-24T13:38:43;13.90;1.00
20650;DHT22;10484;48.736;9.332;2023-04-24T13:41:09;13.90;1.00
20650;DHT22;10484;48.736;9.332;2023-04-24T13:43:35;13.90;1.00
20650;DHT22;10484;48.736;9.332;2023-04-24T13:46:01;13.80;1.00
20650;DHT22;10484;48.736;9.332;2023-04-24T13:48:28;13.90;1.00
20650;DHT22;10484;48.736;9.332;2023-04-24T13:50:54;13.90;1.00
20650;DHT22;10484;48.736;9.332;2023-04-24T13:53:19;13.90;1.00
20650;DHT22;10484;48.736;9.332;2023-04-24T13:55:45;14.00;1.00
20650;DHT22;10484;48.736;9.332;2023-04-24T13:58:10;13.90;1.00
20650;DHT22;10484;48.736;9.332;2023-04-24T14:00:36;13.90;1.00
20650;DHT22;10484;48.736;9.332;2023-04-24T14:03:02;13.80;1.00
20650;DHT22;10484;48.736;9.332;2023-04-24T14:05:27;13.80;1.00
20650;DHT22;10484;48.736;9.332;2023-04-24T14:07:53;13.90;1.00
20650;DHT22;10484;48.736;9.332;2023-04-24T14:10:18;13.90;1.00
20650;DHT22;10484;48.736;9.332;2023-04-24T14:12:44;13.90;1.00
20650;DHT22;10484;48.736;9.332;2023-04-24T14:15:10;13.90;1.00
20650;DHT22;10484;48.736;9.332;2023-04-24T14:17:37;13.80;1.00
20650;DHT22;10484;48.736;9.332;2023-04-24T14:20:03;13.60;1.00
20650;DHT22;10484;48.736;9.332;2023-04-24T14:22:29;13.60;1.00
20650;DHT22;10484;48.736;9.332;2023-04-24T14:24:55;13.70;1.00
20650;DHT22;10484;48.736;9.332;2023-04-24T14:27:21;13.70;1.00
20650;DHT22;10484;48.736;9.332;2023-04-24T14:29:46;13.60;1.00
20650;DHT22;10484;48.736;9.332;2023-04-24T14:32:12;13.60;1.00
20650;DHT22;10484;48.736;9.332;2023-04-24T14:34:40;13.70;1.00
20650;DHT22;10484;48.736;9.332;2023-04-24T14:37:06;13.80;1.00
20650;DHT22;10484;48.736;9.332;2023-04-24T14:39:31;13.80;1.00
20650;DHT22;10484;48.736;9.332;2023-04-24T14:41:57;13.80;1.00
20650;DHT22;10484;48.736;9.332;2023-04-24T14:44:22;13.80;1.00
20650;DHT22;10484;48.736;9.332;2023-04-24T14:46:48;13.80;1.00
20650;DHT22;10484;48.736;9.332;2023-04-24T14:49:14;13.80;1.00
20650;DHT22;10484;48.736;9.332;2023-04-24T14:51:40;13.80;1.00
20650;DHT22;10484;48.736;9.332;2023-04-24T14:54:06;13.80;1.00
20650;DHT22;10484;48.736;9.332;2023-04-24T14:56:32;13.70;1.00
20650;DHT22;10484;48.736;9.332;2023-04-24T14:58:58;13.70;1.00
20650;DHT22;10484;48.736;9.332;2023-04-24T15:01:23;13.70;1.00
20650;DHT22;10484;48.736;9.332;2023-04-24T15:03:49;13.70;1.00
20650;DHT22;10484;48.736;9.332;2023-04-24T15:06:15;13.70;1.00
20650;DHT22;10484;48.736;9.332;2023-04-24T15:08:41;13.70;1.00
20650;DHT22;10484;48.736;9.332;2023-04-24T15:11:07;13.70;1.00
20650;DHT22;10484;48.736;9.332;2023-04-24T15:13:34;13.70;1.00
20650;DHT22;10484;48.736;9.332;2023-04-24T15:15:59;13.70;1.00
20650;DHT22;10484;48.736;9.332;2023-04-24T15:18:25;13.70;1.00
20650;DHT22;10484;48.736;9.332;2023-04-24T15:20:52;13.80;1.00
20650;DHT22;10484;48.736;9.332;2023-04-24T15:23:18;13.80;1.00
20650;DHT22;10484;48.736;9.332;2023-04-24T15:25:44;13.80;1.00
20650;DHT22;10484;48.736;9.332;2023-04-24T15:28:09;13.80;1.00
20650;DHT22;10484;48.736;9.332;2023-04-24T15:30:36;13.80;1.00
20650;DHT22;10484;48.736;9.332;2023-04-24T15:33:01;13.80;1.00
20650;DHT22;10484;48.736;9.332;2023-04-24T15:35:27;13.80;1.00
20650;DHT22;10484;48.736;9.332;2023-04-24T15:37:53;13.80;1.00
20650;DHT22;10484;48.736;9.332;2023-04-24T15:40:18;13.80;1.00
20650;DHT22;10484;48.736;9.332;2023-04-24T15:42:45;13.80;1.00
20650;DHT22;10484;48.736;9.332;2023-04-24T15:45:11;13.80;1.00
20650;DHT22;10484;48.736;9.332;2023-04-24T15:47:37;13.90;1.00
20650;DHT22;10484;48.736;9.332;2023-04-24T15:50:04;13.80;1.00
20650;DHT22;10484;48.736;9.332;2023-04-24T15:52:30;13.90;1.00
20650;DHT22;10484;48.736;9.332;2023-04-24T15:54:55;13.90;1.00
20650;DHT22;10484;48.736;9.332;2023-04-24T15:57:21;13.90;1.00
20650;DHT22;10484;48.736;9.332;2023-04-24T15:59:46;13.90;1.00